Time;durP1;ratioP1;P1;durP2;ratioP2;P2;SDS_P1;SDS_P2;PMS_P1;PMS_P2;Temp;Humidity;BMP_temperature;BMP_pressure;BME280_temperature;BME280_humidity;BME280_pressure;Samples;Min_cycle;Max_cycle;Signal;HPM_P1;HPM_P2
2022/06/11 00:00:50;;;;;;;5.97;1.63;;;17.00;99.90;;;;;;5051398;28;20152;-75
2022/06/11 00:03:16;;;;;;;3.40;1.35;;;17.00;99.90;;;;;;5016357;28;20138;-74
2022/06/11 00:05:41;;;;;;;2.80;1.27;;;17.00;99.90;;;;;;5036197;28;20127;-75
2022/06/11 00:08:08;;;;;;;4.38;1.83;;;16.90;99.90;;;;;;5032943;28;20764;-75
2022/06/11 00:10:34;;;;;;;3.63;1.17;;;16.80;99.90;;;;;;5035508;28;20048;-74
2022/06/11 00:13:00;;;;;;;6.53;1.13;;;16.80;99.90;;;;;;5046104;28;20048;-74
2022/06/11 00:15:26;;;;;;;3.90;1.95;;;16.80;99.90;;;;;;5043564;28;20037;-74
2022/06/11 00:17:52;;;;;;;4.75;1.40;;;16.80;99.90;;;;;;5042874;28;20086;-74
2022/06/11 00:20:19;;;;;;;4.95;1.45;;;16.80;99.90;;;;;;5042188;28;20064;-74
2022/06/11 00:22:45;;;;;;;6.85;1.70;;;16.70;99.90;;;;;;5035645;28;20049;-74
2022/06/11 00:25:11;;;;;;;5.60;2.22;;;16.70;99.90;;;;;;5065770;28;20085;-76
2022/06/11 00:27:37;;;;;;;8.60;1.30;;;16.70;99.90;;;;;;5058750;28;20037;-74
2022/06/11 00:30:06;;;;;;;3.28;1.50;;;16.60;99.90;;;;;;5042711;28;20381;-75
2022/06/11 00:32:31;;;;;;;9.52;1.77;;;16.60;99.90;;;;;;5060691;28;20127;-75
2022/06/11 00:35:01;;;;;;;7.30;1.52;;;16.60;99.90;;;;;;5063174;28;20123;-74
2022/06/11 00:37:27;;;;;;;4.72;1.17;;;16.50;99.90;;;;;;5062916;28;20036;-74
2022/06/11 00:39:52;;;;;;;3.55;1.17;;;16.50;99.90;;;;;;5043870;28;20396;-74
2022/06/11 00:42:24;;;;;;;10.10;1.73;;;16.40;99.90;;;;;;5044848;28;20043;-74
2022/06/11 00:45:32;;;;;;;5.45;1.33;;;16.40;99.90;;;;;;5061597;28;20063;-74
2022/06/11 00:48:22;;;;;;;8.38;1.55;;;16.40;99.90;;;;;;5059841;28;20040;-74
2022/06/11 00:51:02;;;;;;;3.70;1.58;;;16.30;99.90;;;;;;5059604;28;20493;-74
2022/06/11 00:53:39;;;;;;;5.88;1.45;;;16.30;99.90;;;;;;5042996;28;20523;-74
2022/06/11 00:56:11;;;;;;;4.82;1.15;;;16.20;99.90;;;;;;5061264;28;20283;-74
2022/06/11 00:58:40;;;;;;;9.10;1.50;;;16.20;99.90;;;;;;5064477;28;20055;-74
2022/06/11 01:01:08;;;;;;;4.55;1.17;;;16.20;99.90;;;;;;5040759;28;20231;-74
2022/06/11 01:03:37;;;;;;;4.15;1.27;;;16.20;99.90;;;;;;5049698;28;20315;-75
2022/06/11 01:06:37;;;;;;;6.22;1.13;;;16.10;99.90;;;;;;5046886;28;20060;-75
2022/06/11 01:09:13;;;;;;;2.55;0.90;;;16.10;99.90;;;;;;5022440;28;20430;-75
2022/06/11 01:12:05;;;;;;;3.40;1.13;;;16.10;99.90;;;;;;5083376;22;20553;-70
2022/06/11 01:14:58;;;;;;;6.43;1.80;;;16.00;99.90;;;;;;5045230;28;20053;-70
2022/06/11 01:18:22;;;;;;;4.90;1.30;;;16.00;99.90;;;;;;5067040;28;20044;-70
2022/06/11 01:21:05;;;;;;;9.25;1.42;;;15.90;99.90;;;;;;4995774;28;20063;-70
2022/06/11 01:24:11;;;;;;;4.93;1.20;;;15.90;99.90;;;;;;5032707;28;20461;-70
2022/06/11 01:27:14;;;;;;;4.90;1.30;;;15.90;99.90;;;;;;5025695;28;20044;-70
2022/06/11 01:29:44;;;;;;;5.28;1.10;;;15.80;99.90;;;;;;5027607;28;20045;-70
2022/06/11 01:32:32;;;;;;;9.77;1.50;;;15.80;99.90;;;;;;5048097;28;20045;-70
2022/06/11 01:35:03;;;;;;;8.15;1.83;;;15.70;99.90;;;;;;5019486;28;20389;-70
2022/06/11 01:37:35;;;;;;;5.38;1.33;;;15.70;99.90;;;;;;5044942;28;20508;-70
2022/06/11 01:40:12;;;;;;;8.73;1.90;;;15.70;99.90;;;;;;5050361;28;20454;-70
2022/06/11 01:42:50;;;;;;;5.10;1.45;;;15.60;99.90;;;;;;5032347;28;20037;-70
2022/06/11 01:45:42;;;;;;;4.57;1.73;;;15.60;99.90;;;;;;5032428;28;20056;-70
2022/06/11 01:48:16;;;;;;;7.45;1.30;;;15.60;99.90;;;;;;5024380;28;20139;-71
2022/06/11 01:50:47;;;;;;;8.27;1.35;;;15.60;99.90;;;;;;5047865;28;20033;-70
2022/06/11 01:53:28;;;;;;;2.88;0.80;;;15.60;99.90;;;;;;5046051;28;20068;-70
2022/06/11 01:55:53;;;;;;;9.00;1.85;;;15.60;99.90;;;;;;5024036;28;20036;-70
2022/06/11 01:58:48;;;;;;;5.53;1.48;;;15.60;99.90;;;;;;5050137;28;20045;-70
2022/06/11 02:01:30;;;;;;;5.45;1.67;;;15.50;99.90;;;;;;5016844;28;20044;-70
2022/06/11 02:04:17;;;;;;;4.70;1.60;;;15.50;99.90;;;;;;5041873;28;20044;-69
2022/06/11 02:06:55;;;;;;;6.60;1.40;;;15.50;99.90;;;;;;5042523;28;20114;-69
2022/06/11 02:09:50;;;;;;;8.48;1.40;;;15.50;99.90;;;;;;5031911;28;20048;-69
2022/06/11 02:12:42;;;;;;;7.50;2.00;;;15.50;99.90;;;;;;5044804;28;20041;-70
2022/06/11 02:15:14;;;;;;;5.07;1.40;;;15.50;99.90;;;;;;5040804;28;20041;-69
2022/06/11 02:17:43;;;;;;;8.00;1.67;;;15.40;99.90;;;;;;5048582;28;20045;-70
2022/06/11 02:20:14;;;;;;;9.18;1.80;;;15.40;99.90;;;;;;5032324;28;20397;-69
2022/06/11 02:22:55;;;;;;;6.07;1.75;;;15.40;99.90;;;;;;5049541;28;20124;-70
2022/06/11 02:25:35;;;;;;;6.63;1.40;;;15.40;99.90;;;;;;5046100;28;20056;-70
2022/06/11 02:28:06;;;;;;;7.28;1.42;;;15.40;99.90;;;;;;5045805;28;20098;-69
2022/06/11 02:30:33;;;;;;;4.60;1.20;;;15.40;99.90;;;;;;5049070;28;20406;-70
2022/06/11 02:33:00;;;;;;;6.18;1.73;;;15.30;99.90;;;;;;5031168;28;20041;-70
2022/06/11 02:35:42;;;;;;;5.47;1.20;;;15.30;99.90;;;;;;5031051;28;20049;-70
2022/06/11 02:38:11;;;;;;;7.10;1.15;;;15.30;99.90;;;;;;5047784;28;20048;-70
2022/06/11 02:40:45;;;;;;;6.80;1.75;;;15.30;99.90;;;;;;5029858;28;20037;-70
2022/06/11 02:43:11;;;;;;;5.18;1.33;;;15.30;99.90;;;;;;5047850;28;20120;-70
2022/06/11 02:45:37;;;;;;;9.20;1.80;;;15.30;99.90;;;;;;5048558;28;20047;-70
2022/06/11 02:48:04;;;;;;;5.93;1.35;;;15.30;99.90;;;;;;5048028;28;20655;-70
2022/06/11 02:50:32;;;;;;;6.80;1.17;;;15.30;99.90;;;;;;5047441;28;20064;-70
2022/06/11 02:53:00;;;;;;;12.48;1.83;;;15.30;99.90;;;;;;5037644;28;20124;-70
2022/06/11 02:55:27;;;;;;;7.75;1.60;;;15.30;99.90;;;;;;5044466;28;20048;-70
2022/06/11 02:57:53;;;;;;;6.85;1.40;;;15.30;99.90;;;;;;5040123;28;20095;-70
2022/06/11 03:00:23;;;;;;;4.78;1.38;;;15.20;99.90;;;;;;5043796;28;20041;-70
2022/06/11 03:02:48;;;;;;;5.10;1.73;;;15.30;99.90;;;;;;5044853;28;20044;-70
2022/06/11 03:05:21;;;;;;;6.30;1.67;;;15.20;99.90;;;;;;5043865;28;20037;-70
2022/06/11 03:07:48;;;;;;;8.88;2.35;;;15.20;99.90;;;;;;5020760;28;20045;-70
2022/06/11 03:10:16;;;;;;;7.00;1.48;;;15.20;99.90;;;;;;5044236;28;20040;-70
2022/06/11 03:12:41;;;;;;;7.40;1.77;;;15.20;99.90;;;;;;5030342;28;20076;-70
2022/06/11 03:15:07;;;;;;;5.63;1.48;;;15.20;99.90;;;;;;5045021;28;20084;-70
2022/06/11 03:17:33;;;;;;;10.18;1.90;;;15.10;99.90;;;;;;5028852;28;20187;-70
2022/06/11 03:20:00;;;;;;;5.78;1.80;;;15.10;99.90;;;;;;5043549;28;20059;-70
2022/06/11 03:22:26;;;;;;;6.10;1.75;;;15.20;99.90;;;;;;5045376;28;20045;-70
2022/06/11 03:24:52;;;;;;;6.47;1.88;;;15.10;99.90;;;;;;5044815;28;20032;-70
2022/06/11 03:27:19;;;;;;;4.60;1.23;;;15.10;99.90;;;;;;5046871;28;20484;-70
2022/06/11 03:29:45;;;;;;;8.48;1.90;;;15.10;99.90;;;;;;5047051;28;20041;-70
2022/06/11 03:32:10;;;;;;;10.45;1.85;;;15.10;99.90;;;;;;5046852;28;20044;-69
2022/06/11 03:34:36;;;;;;;5.55;1.35;;;15.10;99.90;;;;;;5042457;28;20037;-70
2022/06/11 03:37:04;;;;;;;7.78;2.80;;;15.00;99.90;;;;;;5025246;28;20060;-70
2022/06/11 03:39:29;;;;;;;6.03;2.03;;;15.00;99.90;;;;;;5046055;28;20115;-70
2022/06/11 03:41:55;;;;;;;6.88;1.50;;;15.00;99.90;;;;;;5020788;28;20136;-69
2022/06/11 03:44:22;;;;;;;6.88;2.00;;;15.10;99.90;;;;;;5028353;28;20041;-70
2022/06/11 03:46:48;;;;;;;5.57;1.38;;;15.10;99.90;;;;;;5043290;28;20067;-70
2022/06/11 03:49:15;;;;;;;7.65;2.17;;;15.10;99.90;;;;;;5011115;28;20045;-70
2022/06/11 03:51:41;;;;;;;8.63;2.20;;;15.00;99.90;;;;;;5025713;28;20038;-70
2022/06/11 03:54:07;;;;;;;9.90;1.83;;;15.10;99.90;;;;;;5025189;28;20053;-70
2022/06/11 03:56:34;;;;;;;7.75;1.63;;;15.10;99.90;;;;;;5043790;28;20048;-70
2022/06/11 03:59:00;;;;;;;13.63;2.45;;;15.10;99.90;;;;;;5042226;28;20041;-70
2022/06/11 04:01:28;;;;;;;5.05;1.58;;;15.00;99.90;;;;;;5037781;28;20124;-70
2022/06/11 04:03:59;;;;;;;5.32;1.48;;;15.20;99.90;;;;;;5024036;28;20040;-70
2022/06/11 04:06:28;;;;;;;6.75;2.00;;;15.10;99.90;;;;;;5039179;28;20410;-70
2022/06/11 04:08:54;;;;;;;9.35;1.63;;;15.10;99.90;;;;;;5024002;28;20044;-70
2022/06/11 04:11:21;;;;;;;9.27;2.35;;;15.10;99.90;;;;;;5028274;28;20041;-70
2022/06/11 04:13:48;;;;;;;8.30;1.75;;;15.10;99.90;;;;;;5048248;28;20036;-69
2022/06/11 04:16:22;;;;;;;11.05;2.30;;;15.10;99.90;;;;;;5047293;28;20512;-70
2022/06/11 04:18:48;;;;;;;10.65;1.88;;;15.10;99.90;;;;;;5030135;28;20041;-69
2022/06/11 04:21:15;;;;;;;14.57;3.15;;;15.10;99.90;;;;;;5046425;28;20037;-70
2022/06/11 04:23:45;;;;;;;12.70;2.55;;;15.10;99.90;;;;;;5029160;28;20042;-70
2022/06/11 04:26:14;;;;;;;10.98;1.85;;;15.20;99.90;;;;;;5047845;28;20119;-70
2022/06/11 04:28:40;;;;;;;6.70;2.10;;;15.20;99.90;;;;;;5014024;28;20059;-69
2022/06/11 04:31:08;;;;;;;7.72;2.20;;;15.30;99.90;;;;;;5024215;28;20049;-70
2022/06/11 04:33:34;;;;;;;6.80;1.85;;;15.30;99.90;;;;;;5030842;28;20037;-69
2022/06/11 04:36:00;;;;;;;14.73;2.45;;;15.30;99.90;;;;;;5021007;28;20037;-70
2022/06/11 04:38:26;;;;;;;6.65;2.03;;;15.30;99.90;;;;;;5034816;28;20522;-70
2022/06/11 04:40:53;;;;;;;12.00;2.58;;;15.40;99.90;;;;;;5033070;28;20045;-70
2022/06/11 04:43:19;;;;;;;7.72;1.95;;;15.40;99.90;;;;;;5033945;28;20091;-69
2022/06/11 04:45:46;;;;;;;;;;;15.40;99.90;;;;;;5047619;28;20111;-70
2022/06/11 04:48:12;;;;;;;9.83;2.73;;;15.40;99.90;;;;;;5044941;28;19963;-70
2022/06/11 04:50:38;;;;;;;11.65;2.42;;;15.50;99.90;;;;;;5041838;28;20693;-69
2022/06/11 04:53:04;;;;;;;9.85;2.45;;;15.50;99.90;;;;;;5035369;28;20432;-70
2022/06/11 04:55:30;;;;;;;10.43;3.17;;;15.50;99.90;;;;;;5052142;28;20193;-70
2022/06/11 04:57:55;;;;;;;10.45;3.10;;;15.60;99.90;;;;;;5032833;28;20612;-70
2022/06/11 05:00:24;;;;;;;7.72;2.17;;;15.60;99.90;;;;;;5033733;28;20045;-70
2022/06/11 05:02:50;;;;;;;8.98;2.53;;;15.60;99.90;;;;;;5051868;28;20033;-69
2022/06/11 05:05:16;;;;;;;13.07;2.22;;;15.60;99.90;;;;;;5033905;28;20041;-69
2022/06/11 05:07:43;;;;;;;14.57;2.90;;;15.60;99.90;;;;;;5009129;28;20120;-70
2022/06/11 05:10:12;;;;;;;9.15;2.55;;;15.60;99.90;;;;;;5003744;28;20413;-69
2022/06/11 05:12:38;;;;;;;9.25;2.22;;;15.60;99.90;;;;;;5030564;28;20095;-69
2022/06/11 05:15:04;;;;;;;13.07;2.40;;;15.60;99.90;;;;;;5050321;28;20040;-70
2022/06/11 05:17:29;;;;;;;12.00;2.97;;;15.60;99.90;;;;;;5050267;28;20049;-70
2022/06/11 05:19:55;;;;;;;5.93;2.15;;;15.60;99.90;;;;;;5033106;28;20052;-70
2022/06/11 05:22:21;;;;;;;12.57;2.15;;;15.60;99.90;;;;;;5047729;28;20107;-70
2022/06/11 05:24:47;;;;;;;12.18;2.60;;;15.60;99.90;;;;;;5026935;28;20098;-70
2022/06/11 05:27:17;;;;;;;7.65;2.97;;;15.70;99.90;;;;;;5033063;28;20044;-69
2022/06/11 05:30:09;;;;;;;8.00;2.53;;;15.70;99.90;;;;;;5051271;28;20052;-70
2022/06/11 05:32:37;;;;;;;14.00;2.83;;;15.70;99.90;;;;;;5044151;28;20127;-70
2022/06/11 05:35:06;;;;;;;9.60;2.58;;;15.80;99.90;;;;;;5051408;28;20116;-70
2022/06/11 05:37:33;;;;;;;18.30;3.45;;;15.80;99.90;;;;;;5047522;28;20045;-70
2022/06/11 05:39:58;;;;;;;;;;;15.80;99.90;;;;;;5051614;28;20055;-70
2022/06/11 05:42:25;;;;;;;9.00;3.28;;;15.80;99.90;;;;;;5049245;28;19917;-70
2022/06/11 05:44:52;;;;;;;11.57;2.53;;;15.80;99.90;;;;;;5051389;28;20055;-70
2022/06/11 05:47:22;;;;;;;12.20;2.35;;;15.80;99.90;;;;;;5032496;28;20045;-70
2022/06/11 05:49:57;;;;;;;15.57;2.70;;;15.80;99.90;;;;;;5050273;28;20094;-70
2022/06/11 05:52:27;;;;;;;17.80;2.75;;;15.80;99.90;;;;;;5047527;28;20155;-70
2022/06/11 05:54:54;;;;;;;10.98;3.25;;;15.90;99.90;;;;;;5047776;28;20037;-70
2022/06/11 05:57:24;;;;;;;12.25;2.80;;;15.90;99.90;;;;;;5013833;28;20072;-70
2022/06/11 06:00:03;;;;;;;9.85;2.80;;;16.00;99.90;;;;;;5028186;28;20045;-70
2022/06/11 06:02:29;;;;;;;17.98;3.63;;;16.00;99.90;;;;;;5046564;28;20049;-69
2022/06/11 06:04:55;;;;;;;9.02;2.80;;;16.10;99.90;;;;;;5033088;28;20060;-70
2022/06/11 06:07:21;;;;;;;13.05;2.90;;;16.10;99.90;;;;;;5049171;28;20041;-70
2022/06/11 06:09:47;;;;;;;14.88;3.33;;;16.10;99.90;;;;;;5031952;28;20045;-70
2022/06/11 06:12:15;;;;;;;14.65;2.83;;;16.20;99.90;;;;;;5030437;28;20454;-70
2022/06/11 06:14:41;;;;;;;14.32;3.17;;;16.20;99.90;;;;;;5049002;28;20045;-70
2022/06/11 06:17:06;;;;;;;13.15;3.28;;;16.30;99.90;;;;;;5049570;28;20048;-70
2022/06/11 06:19:32;;;;;;;13.80;2.92;;;16.30;99.90;;;;;;5050183;28;20029;-70
2022/06/11 06:21:58;;;;;;;16.98;3.15;;;16.30;99.90;;;;;;5029001;28;20086;-70
2022/06/11 06:24:23;;;;;;;15.95;3.65;;;16.30;99.90;;;;;;5032434;28;20489;-70
2022/06/11 06:26:49;;;;;;;12.75;3.42;;;16.40;99.90;;;;;;5031162;28;20041;-70
2022/06/11 06:29:15;;;;;;;10.37;3.33;;;16.40;99.90;;;;;;5025890;28;20128;-70
2022/06/11 06:31:40;;;;;;;18.67;3.15;;;16.50;99.90;;;;;;5027611;28;20310;-70
2022/06/11 06:34:06;;;;;;;14.98;2.90;;;16.50;99.90;;;;;;5049802;28;20477;-70
2022/06/11 06:36:33;;;;;;;13.82;2.60;;;16.60;99.90;;;;;;5029659;28;20037;-70
2022/06/11 06:38:58;;;;;;;15.27;3.60;;;16.60;99.90;;;;;;5024696;28;20041;-70
2022/06/11 06:41:24;;;;;;;12.85;2.47;;;16.60;99.90;;;;;;5049035;28;20040;-70
2022/06/11 06:43:50;;;;;;;11.85;2.88;;;16.70;99.90;;;;;;5023866;28;20036;-70
2022/06/11 06:46:17;;;;;;;12.85;3.45;;;16.80;99.90;;;;;;5020795;28;20036;-69
2022/06/11 06:48:43;;;;;;;17.48;2.92;;;16.80;99.90;;;;;;5020803;28;20040;-70
2022/06/11 06:51:10;;;;;;;16.90;2.58;;;16.80;99.90;;;;;;5027872;28;20098;-70
2022/06/11 06:53:37;;;;;;;11.75;2.80;;;16.80;99.90;;;;;;5044286;28;20478;-70
2022/06/11 06:56:03;;;;;;;12.80;2.47;;;16.80;99.90;;;;;;5046304;28;20107;-70
2022/06/11 06:58:29;;;;;;;10.25;2.55;;;16.90;99.90;;;;;;5044143;28;20045;-70
2022/06/11 07:00:55;;;;;;;13.75;2.90;;;16.90;99.90;;;;;;5016151;28;20461;-70
2022/06/11 07:03:21;;;;;;;6.03;2.22;;;17.00;99.90;;;;;;5029320;28;20075;-70
2022/06/11 07:05:48;;;;;;;;;;;17.00;99.90;;;;;;5048741;28;20040;-70
2022/06/11 07:08:15;;;;;;;13.38;2.67;;;17.10;99.90;;;;;;5025107;28;19962;-70
2022/06/11 07:10:45;;;;;;;11.15;2.70;;;17.20;99.90;;;;;;5025289;28;20040;-70
2022/06/11 07:13:10;;;;;;;13.30;2.38;;;17.20;99.90;;;;;;5028561;28;20055;-70
2022/06/11 07:15:36;;;;;;;15.68;2.90;;;17.20;99.90;;;;;;5045283;28;20037;-70
2022/06/11 07:18:10;;;;;;;11.50;2.08;;;17.30;99.90;;;;;;5044324;28;20045;-70
2022/06/11 07:20:36;;;;;;;12.70;2.10;;;17.30;99.90;;;;;;5022087;28;20102;-70
2022/06/11 07:23:12;;;;;;;11.65;2.70;;;17.20;99.90;;;;;;5025708;28;20106;-70
2022/06/11 07:25:40;;;;;;;19.00;3.78;;;17.40;99.90;;;;;;5042823;28;20063;-70
2022/06/11 07:28:13;;;;;;;6.68;2.30;;;17.50;99.90;;;;;;5021972;28;20053;-70
2022/06/11 07:30:41;;;;;;;10.00;2.28;;;17.60;99.90;;;;;;5022658;28;20040;-70
2022/06/11 07:33:15;;;;;;;15.32;3.17;;;17.60;99.90;;;;;;5045849;28;20478;-70
2022/06/11 07:35:41;;;;;;;10.93;2.28;;;17.70;99.90;;;;;;5043795;28;20048;-70
2022/06/11 07:38:11;;;;;;;13.98;3.38;;;17.70;99.90;;;;;;5037399;28;20033;-70
2022/06/11 07:40:38;;;;;;;9.35;3.08;;;17.70;99.90;;;;;;5041896;28;20094;-71
2022/06/11 07:43:06;;;;;;;10.35;2.50;;;17.70;99.90;;;;;;5041407;28;20041;-70
2022/06/11 07:45:36;;;;;;;11.88;2.55;;;17.70;99.90;;;;;;5044216;28;20369;-70
2022/06/11 07:48:02;;;;;;;13.55;3.05;;;17.80;99.90;;;;;;5041010;28;20048;-71
2022/06/11 07:50:34;;;;;;;8.65;2.28;;;17.80;99.90;;;;;;5041620;28;20056;-71
2022/06/11 07:53:00;;;;;;;13.02;2.33;;;17.80;99.90;;;;;;5042208;28;20037;-71
2022/06/11 07:55:27;;;;;;;13.25;2.45;;;17.80;99.90;;;;;;5028252;28;20497;-71
2022/06/11 07:57:53;;;;;;;11.75;2.40;;;17.90;99.90;;;;;;5042901;28;20051;-71
2022/06/11 08:00:26;;;;;;;10.10;2.20;;;18.00;99.90;;;;;;5042406;28;20033;-70
2022/06/11 08:02:52;;;;;;;18.15;3.45;;;18.00;99.90;;;;;;5030152;28;20127;-70
2022/06/11 08:05:18;;;;;;;11.77;2.67;;;18.10;99.90;;;;;;5021763;28;20037;-71
2022/06/11 08:07:44;;;;;;;9.35;2.42;;;18.10;99.90;;;;;;5035666;28;20523;-71
2022/06/11 08:10:11;;;;;;;8.25;2.00;;;18.20;99.90;;;;;;5027059;28;20037;-70
2022/06/11 08:12:37;;;;;;;8.43;1.80;;;18.20;99.90;;;;;;5019593;28;20059;-70
2022/06/11 08:15:04;;;;;;;10.18;2.13;;;18.20;99.90;;;;;;5046389;28;20045;-71
2022/06/11 08:17:31;;;;;;;13.23;2.67;;;18.30;99.90;;;;;;5021940;28;20057;-71
2022/06/11 08:19:57;;;;;;;14.85;2.30;;;18.40;99.90;;;;;;5029652;28;20036;-71
2022/06/11 08:22:23;;;;;;;10.75;2.03;;;18.40;99.90;;;;;;5009218;28;20059;-70
2022/06/11 08:24:48;;;;;;;8.88;2.25;;;18.40;99.90;;;;;;5021515;28;20531;-70
2022/06/11 08:27:15;;;;;;;7.47;2.05;;;18.40;99.90;;;;;;5023941;28;20174;-70
2022/06/11 08:29:41;;;;;;;7.68;1.92;;;18.40;99.90;;;;;;5043312;28;20055;-71
2022/06/11 08:32:07;;;;;;;7.28;1.67;;;18.40;99.90;;;;;;5045208;28;20040;-70
2022/06/11 08:34:42;;;;;;;11.10;2.17;;;18.40;99.90;;;;;;5024326;28;20040;-70
2022/06/11 08:37:08;;;;;;;9.50;2.15;;;18.40;99.90;;;;;;5044668;28;20049;-70
2022/06/11 08:39:34;;;;;;;7.53;2.05;;;18.50;99.90;;;;;;5039203;28;20048;-71
2022/06/11 08:42:01;;;;;;;9.80;2.65;;;18.50;99.90;;;;;;5018834;28;20569;-70
2022/06/11 08:44:29;;;;;;;7.88;2.40;;;18.50;99.90;;;;;;5031493;28;20120;-72
2022/06/11 08:46:57;;;;;;;9.10;1.98;;;18.60;99.90;;;;;;5035291;28;20067;-71
2022/06/11 08:49:45;;;;;;;12.35;2.88;;;18.70;99.90;;;;;;5024012;28;20103;-70
2022/06/11 08:52:25;;;;;;;5.72;1.70;;;18.70;99.90;;;;;;5026176;28;20113;-71
2022/06/11 08:54:51;;;;;;;10.00;1.38;;;18.80;99.90;;;;;;5027264;28;20033;-70
2022/06/11 08:57:25;;;;;;;14.27;1.90;;;18.80;99.90;;;;;;5026746;28;20067;-71
2022/06/11 08:59:50;;;;;;;6.13;2.00;;;18.90;99.90;;;;;;5047561;28;20044;-70
2022/06/11 09:02:41;;;;;;;11.07;2.08;;;19.00;99.90;;;;;;5023172;28;20052;-71
2022/06/11 09:05:25;;;;;;;6.88;1.73;;;19.00;99.90;;;;;;5043886;28;20472;-72
2022/06/11 09:08:35;;;;;;;15.98;2.20;;;19.00;99.90;;;;;;5023024;28;20045;-70
2022/06/11 09:11:33;;;;;;;11.82;1.90;;;19.10;99.90;;;;;;5026758;28;20056;-71
2022/06/11 09:14:30;;;;;;;4.32;1.60;;;19.10;99.90;;;;;;5024764;28;20064;-71
2022/06/11 09:17:17;;;;;;;12.07;1.85;;;19.10;99.90;;;;;;5018700;28;20056;-71
2022/06/11 09:20:01;;;;;;;9.52;2.15;;;19.20;99.90;;;;;;5007964;28;21052;-71
2022/06/11 09:22:39;;;;;;;9.02;2.15;;;19.30;99.90;;;;;;5032208;28;20037;-71
2022/06/11 09:25:42;;;;;;;10.25;2.08;;;19.20;99.90;;;;;;5046994;28;20122;-71
2022/06/11 09:28:17;;;;;;;5.80;1.92;;;19.10;99.90;;;;;;5003897;28;20085;-71
2022/06/11 09:30:47;;;;;;;6.88;1.35;;;19.10;99.90;;;;;;5049895;28;20076;-71
2022/06/11 09:33:21;;;;;;;8.70;1.67;;;19.20;99.90;;;;;;5021367;28;20040;-70
2022/06/11 09:36:01;;;;;;;14.95;2.45;;;19.20;99.90;;;;;;5041726;28;20468;-71
2022/06/11 09:38:34;;;;;;;9.82;1.70;;;19.30;99.90;;;;;;5036842;28;20120;-70
2022/06/11 09:41:03;;;;;;;8.55;1.42;;;19.40;99.90;;;;;;5030082;28;20672;-71
2022/06/11 09:43:55;;;;;;;7.25;1.30;;;19.60;99.90;;;;;;5039251;28;20088;-72
2022/06/11 09:46:34;;;;;;;7.05;1.40;;;19.60;99.90;;;;;;5007680;28;20110;-70
2022/06/11 09:49:21;;;;;;;8.68;1.83;;;19.70;99.90;;;;;;5015401;28;20159;-71
2022/06/11 09:51:53;;;;;;;7.10;1.30;;;19.70;99.90;;;;;;5014069;28;20048;-71
2022/06/11 09:54:38;;;;;;;5.25;1.10;;;19.80;99.90;;;;;;5019492;28;20098;-71
2022/06/11 09:57:31;;;;;;;7.18;1.42;;;19.80;99.90;;;;;;5039316;28;20401;-71
2022/06/11 10:00:05;;;;;;;9.40;1.60;;;19.90;99.00;;;;;;5017768;28;20080;-71
2022/06/11 10:05:47;;;;;;;7.82;1.27;;;20.00;99.80;;;;;;5043095;28;20115;-70
2022/06/11 10:08:25;;;;;;;9.90;1.27;;;20.10;99.90;;;;;;5028776;28;20401;-71
2022/06/11 10:10:52;;;;;;;6.50;2.13;;;20.10;97.60;;;;;;5020832;28;20301;-71
2022/06/11 10:13:34;;;;;;;6.35;1.60;;;20.10;98.60;;;;;;5022243;28;20102;-71
2022/06/11 10:16:20;;;;;;;8.70;2.03;;;20.10;95.20;;;;;;5034683;28;20047;-71
2022/06/11 10:18:47;;;;;;;5.50;1.42;;;20.00;99.90;;;;;;5021991;28;20075;-71
2022/06/11 10:21:15;;;;;;;7.75;1.58;;;20.10;99.90;;;;;;5012966;28;20045;-71
2022/06/11 10:24:01;;;;;;;8.93;1.33;;;20.10;99.70;;;;;;5024161;28;20075;-72
2022/06/11 10:26:37;;;;;;;10.63;1.95;;;20.10;99.90;;;;;;5022561;28;20125;-71
2022/06/11 10:29:16;;;;;;;8.77;1.70;;;20.30;99.90;;;;;;5025935;28;20052;-71
2022/06/11 10:31:53;;;;;;;5.72;1.65;;;20.40;99.90;;;;;;5025007;28;20397;-72
2022/06/11 10:34:23;;;;;;;10.00;1.77;;;20.50;97.70;;;;;;5036871;28;20039;-71
2022/06/11 10:37:07;;;;;;;7.55;1.30;;;20.60;99.90;;;;;;5046531;28;20056;-71
2022/06/11 10:39:46;;;;;;;8.30;2.38;;;20.70;99.90;;;;;;5030442;28;20040;-71
2022/06/11 10:42:24;;;;;;;6.72;1.73;;;20.80;99.90;;;;;;5034120;28;22657;-71
2022/06/11 10:44:52;;;;;;;8.52;1.60;;;20.80;98.90;;;;;;5022811;28;20497;-71
2022/06/11 10:47:34;;;;;;;7.75;2.17;;;20.90;98.30;;;;;;5036350;28;20041;-71
2022/06/11 10:50:09;;;;;;;4.43;1.13;;;21.00;98.70;;;;;;5018557;28;20178;-71
2022/06/11 10:52:55;;;;;;;8.10;1.73;;;21.00;92.60;;;;;;5014056;28;20186;-71
2022/06/11 10:55:32;;;;;;;9.32;1.67;;;20.90;90.10;;;;;;5047808;28;20036;-71
2022/06/11 10:58:08;;;;;;;8.57;1.70;;;20.90;94.10;;;;;;5027838;28;20498;-70
2022/06/11 11:00:51;;;;;;;10.05;1.60;;;20.90;93.70;;;;;;5038284;28;20055;-71
2022/06/11 11:03:24;;;;;;;5.18;1.63;;;20.90;93.70;;;;;;5029572;28;20111;-71
2022/06/11 11:06:04;;;;;;;4.45;0.98;;;21.00;94.00;;;;;;5042939;28;20108;-70
2022/06/11 11:08:30;;;;;;;7.22;1.45;;;20.90;91.10;;;;;;5038854;28;20050;-71
2022/06/11 11:10:58;;;;;;;8.73;1.40;;;20.90;93.60;;;;;;5012586;28;20115;-70
2022/06/11 11:13:37;;;;;;;6.35;1.35;;;20.90;94.20;;;;;;4998721;28;20045;-70
2022/06/11 11:16:11;;;;;;;9.68;1.77;;;20.90;93.70;;;;;;5038266;28;20040;-70
2022/06/11 11:19:12;;;;;;;5.97;1.35;;;21.00;94.40;;;;;;5027723;28;20127;-70
2022/06/11 11:21:48;;;;;;;7.82;1.10;;;21.10;90.80;;;;;;5030880;28;20120;-71
2022/06/11 11:24:22;;;;;;;5.70;1.13;;;21.20;92.20;;;;;;5039422;28;20044;-70
2022/06/11 11:26:55;;;;;;;7.93;1.33;;;21.30;83.70;;;;;;5025102;28;20395;-70
2022/06/11 11:29:30;;;;;;;6.10;1.33;;;21.30;90.80;;;;;;5015560;28;20123;-70
2022/06/11 11:32:26;;;;;;;7.82;1.52;;;21.30;92.80;;;;;;5021120;28;20068;-70
2022/06/11 11:34:52;;;;;;;6.05;1.13;;;21.30;87.60;;;;;;5025731;28;20445;-71
2022/06/11 11:37:24;;;;;;;3.20;1.27;;;21.40;87.80;;;;;;5025577;28;20127;-71
2022/06/11 11:40:22;;;;;;;7.03;1.38;;;21.40;86.10;;;;;;4995255;28;20052;-71
2022/06/11 11:42:54;;;;;;;5.78;1.25;;;21.40;79.50;;;;;;5024028;28;20045;-71
2022/06/11 11:45:40;;;;;;;6.20;1.30;;;21.40;81.50;;;;;;5026989;28;20498;-71
2022/06/11 11:48:11;;;;;;;4.97;1.05;;;21.40;79.70;;;;;;5018400;28;20045;-70
2022/06/11 11:50:40;;;;;;;6.95;1.13;;;21.50;85.40;;;;;;5046237;28;20037;-70
2022/06/11 11:53:20;;;;;;;4.97;1.02;;;21.50;84.40;;;;;;5030801;28;20457;-71
2022/06/11 11:56:01;;;;;;;4.80;1.35;;;21.50;82.40;;;;;;5029671;28;20047;-71
2022/06/11 11:58:48;;;;;;;3.63;0.90;;;21.60;79.50;;;;;;5021370;28;20051;-70
2022/06/11 12:01:16;;;;;;;5.50;1.10;;;21.70;73.90;;;;;;5031675;28;20045;-70
2022/06/11 12:04:07;;;;;;;7.50;1.77;;;21.70;79.00;;;;;;5047398;28;20056;-71
2022/06/11 12:06:37;;;;;;;8.45;1.52;;;21.70;77.40;;;;;;5003555;28;20083;-70
2022/06/11 12:09:17;;;;;;;6.68;1.17;;;21.70;77.70;;;;;;5014335;28;20045;-70
2022/06/11 12:11:53;;;;;;;9.60;1.45;;;21.70;80.80;;;;;;5027962;28;20045;-71
2022/06/11 12:14:27;;;;;;;6.35;0.93;;;21.80;83.90;;;;;;5022956;28;20441;-70
2022/06/11 12:16:56;;;;;;;3.58;0.60;;;21.90;81.30;;;;;;5028460;28;20118;-71
2022/06/11 12:19:21;;;;;;;4.90;1.05;;;21.90;80.40;;;;;;5020788;28;20045;-71
2022/06/11 12:21:50;;;;;;;;;;;22.00;81.10;;;;;;5039448;28;20451;-71
2022/06/11 12:24:26;;;;;;;4.15;1.38;;;22.00;75.40;;;;;;5027314;28;19951;-71
2022/06/11 12:26:55;;;;;;;;;;;22.00;79.30;;;;;;5033528;28;20051;-71
2022/06/11 12:29:30;;;;;;;4.88;1.10;;;22.10;75.50;;;;;;5026943;28;19920;-70
2022/06/11 12:32:16;;;;;;;7.72;1.20;;;22.20;75.90;;;;;;5043148;28;20055;-71
2022/06/11 12:34:42;;;;;;;4.47;1.58;;;22.20;77.20;;;;;;5041598;28;20417;-71
2022/06/11 12:37:20;;;;;;;;;;;22.20;76.90;;;;;;5044969;28;20052;-70
2022/06/11 12:40:15;;;;;;;9.93;1.55;;;22.10;72.90;;;;;;5010735;28;20413;-70
2022/06/11 12:42:44;;;;;;;5.47;1.80;;;22.00;76.00;;;;;;5013179;28;20562;-71
2022/06/11 12:45:21;;;;;;;4.75;1.42;;;21.90;74.10;;;;;;5044095;28;20040;-70
2022/06/11 12:48:01;;;;;;;3.35;1.25;;;21.90;79.90;;;;;;5028034;28;20072;-71
2022/06/11 12:50:49;;;;;;;6.45;2.05;;;22.00;83.00;;;;;;5043612;28;20451;-71
2022/06/11 12:53:41;;;;;;;8.10;1.90;;;22.00;84.10;;;;;;5017024;28;20044;-71
2022/06/11 12:56:34;;;;;;;7.80;1.50;;;22.20;88.20;;;;;;5020996;28;20048;-70
2022/06/11 12:59:27;;;;;;;10.63;1.85;;;22.30;79.80;;;;;;5009977;28;20674;-71
2022/06/11 13:02:08;;;;;;;13.32;2.08;;;22.30;74.60;;;;;;5034349;28;20055;-71
2022/06/11 13:04:55;;;;;;;6.75;1.70;;;22.20;80.70;;;;;;5033346;28;20037;-70
2022/06/11 13:07:38;;;;;;;7.90;1.67;;;22.20;84.10;;;;;;5038554;28;20041;-71
2022/06/11 13:10:29;;;;;;;5.90;1.38;;;22.30;81.50;;;;;;5039854;28;20452;-71
2022/06/11 13:13:07;;;;;;;7.40;1.45;;;22.10;72.30;;;;;;5033405;28;20052;-71
2022/06/11 13:15:54;;;;;;;7.10;1.48;;;22.00;75.60;;;;;;5003035;28;20041;-70
2022/06/11 13:18:38;;;;;;;;;;;21.80;84.40;;;;;;5011792;28;20175;-71